Terminal Aerodrome Forecast
Issued by NWS

Home | Current Version | Previous Version | Graphics & Text | Print | Product List | Glossary On
Versions: 1 2 3 4 5 6 7 8 9 10 11 12 13 14
000
FTUS45 KGGW 221140
TAFGDV
TAF
KGDV 221140Z 2212/2312 36009KT 1 1/2SM -SN OVC003
     FM221800 01012KT P6SM VCSH OVC009
     FM230000 02009KT P6SM BKN010 OVC012=

USA.gov is the U.S. government's official web portal to all federal, state and local government web resources and services.